createdAt,value
2017-09-29T00:00:24.634Z,93.73
2017-09-29T00:02:53.011Z,93.11
2017-09-29T00:05:21.367Z,93.81
2017-09-29T00:07:49.716Z,94.74
2017-09-29T00:10:18.060Z,94.58
2017-09-29T00:12:46.404Z,94.70
2017-09-29T00:15:14.800Z,95.29
2017-09-29T00:17:43.142Z,95.76
2017-09-29T00:20:11.487Z,96.64
2017-09-29T00:22:39.825Z,97.78
2017-09-29T00:25:08.204Z,97.88
2017-09-29T00:27:36.539Z,97.63
2017-09-29T00:30:04.895Z,98.31
2017-09-29T00:32:33.234Z,99.51
2017-09-29T00:35:01.593Z,100.00
2017-09-29T00:37:29.970Z,100.00
2017-09-29T00:39:58.325Z,100.00
2017-09-29T00:42:26.793Z,100.00
2017-09-29T00:44:55.152Z,100.00
2017-09-29T00:47:23.510Z,100.00
2017-09-29T00:49:51.895Z,100.00
2017-09-29T00:52:20.250Z,100.00
2017-09-29T00:54:48.598Z,100.00
2017-09-29T00:57:16.959Z,100.00
2017-09-29T00:59:45.347Z,100.00
2017-09-29T01:02:13.695Z,100.00
2017-09-29T01:04:42.050Z,100.00
2017-09-29T01:07:10.408Z,100.00
2017-09-29T01:09:38.755Z,100.00
2017-09-29T01:12:07.247Z,100.00
2017-09-29T01:14:36.699Z,100.00
2017-09-29T01:17:05.055Z,100.00
2017-09-29T01:19:33.434Z,100.00
2017-09-29T01:22:01.784Z,100.00
2017-09-29T01:24:30.139Z,100.00
2017-09-29T01:26:58.490Z,100.00
2017-09-29T01:29:26.875Z,100.00
2017-09-29T01:31:55.225Z,100.00
2017-09-29T01:34:23.580Z,100.00
2017-09-29T01:36:52.082Z,100.00
2017-09-29T01:39:20.415Z,100.00
2017-09-29T01:41:48.779Z,100.00
2017-09-29T01:44:17.138Z,100.00
2017-09-29T01:46:45.519Z,100.00
2017-09-29T01:49:13.898Z,100.00
2017-09-29T01:51:42.255Z,100.00
2017-09-29T01:54:10.632Z,100.00
2017-09-29T01:56:39.006Z,100.00
2017-09-29T01:59:07.362Z,100.00
2017-09-29T02:01:35.738Z,100.00
2017-09-29T02:04:04.210Z,100.00
2017-09-29T02:06:32.574Z,100.00
2017-09-29T02:09:00.932Z,100.00
2017-09-29T02:11:29.282Z,100.00
2017-09-29T02:13:57.639Z,100.00
2017-09-29T02:16:25.989Z,100.00
2017-09-29T02:18:54.344Z,100.00
2017-09-29T02:21:22.742Z,100.00
2017-09-29T02:23:51.098Z,100.00
2017-09-29T02:26:19.451Z,100.00
2017-09-29T02:28:47.799Z,100.00
2017-09-29T02:31:16.157Z,100.00
2017-09-29T02:33:44.539Z,100.00
2017-09-29T02:36:12.903Z,100.00
2017-09-29T02:38:41.289Z,100.00
2017-09-29T02:41:09.638Z,100.00
2017-09-29T02:43:38.036Z,100.00
2017-09-29T02:46:06.527Z,100.00
2017-09-29T02:48:34.902Z,100.00
2017-09-29T02:51:03.286Z,100.00
2017-09-29T02:53:31.663Z,100.00
2017-09-29T02:56:00.027Z,100.00
2017-09-29T02:58:31.397Z,100.00
2017-09-29T03:01:04.321Z,100.00
2017-09-29T03:03:34.631Z,100.00
2017-09-29T03:06:05.327Z,100.00
2017-09-29T03:08:33.838Z,100.00
2017-09-29T03:11:02.199Z,100.00
2017-09-29T03:13:30.551Z,100.00
2017-09-29T03:15:58.933Z,100.00
2017-09-29T03:18:27.291Z,100.00
2017-09-29T03:20:55.865Z,100.00
2017-09-29T03:23:24.248Z,100.00
2017-09-29T03:25:53.007Z,100.00
2017-09-29T03:28:21.403Z,100.00
2017-09-29T03:30:49.759Z,100.00
2017-09-29T03:33:18.110Z,100.00
2017-09-29T03:35:46.458Z,100.00
2017-09-29T03:38:14.843Z,100.00
2017-09-29T03:40:43.203Z,100.00
2017-09-29T03:43:11.559Z,100.00
2017-09-29T03:45:39.902Z,100.00
2017-09-29T03:48:08.279Z,100.00
2017-09-29T03:50:38.758Z,100.00
2017-09-29T03:53:09.023Z,100.00
2017-09-29T03:55:37.767Z,100.00
2017-09-29T03:58:07.740Z,100.00
2017-09-29T04:00:36.236Z,100.00
2017-09-29T04:03:04.587Z,100.00
2017-09-29T04:05:32.946Z,100.00
2017-09-29T04:08:01.328Z,100.00
2017-09-29T04:10:29.682Z,100.00
2017-09-29T04:12:58.062Z,100.00
2017-09-29T04:15:26.417Z,100.00
2017-09-29T04:17:54.789Z,100.00
2017-09-29T04:20:23.142Z,100.00
2017-09-29T04:22:51.494Z,100.00
2017-09-29T04:25:19.856Z,100.00
2017-09-29T04:27:48.236Z,100.00
2017-09-29T04:30:16.599Z,100.00
2017-09-29T04:32:44.962Z,100.00
2017-09-29T04:35:13.328Z,100.00
2017-09-29T04:37:41.682Z,100.00
2017-09-29T04:40:10.039Z,100.00
2017-09-29T04:42:38.467Z,100.00
2017-09-29T04:45:06.932Z,100.00
2017-09-29T04:47:35.308Z,100.00
2017-09-29T04:50:03.684Z,100.00
2017-09-29T04:52:32.356Z,100.00
2017-09-29T04:55:00.801Z,100.00
2017-09-29T04:57:29.181Z,100.00
2017-09-29T04:59:57.886Z,100.00
2017-09-29T05:02:26.234Z,100.00
2017-09-29T05:04:55.554Z,100.00
2017-09-29T05:07:23.912Z,100.00
2017-09-29T05:09:52.266Z,100.00
2017-09-29T05:12:20.659Z,100.00
2017-09-29T05:14:49.048Z,100.00
2017-09-29T05:17:17.384Z,100.00
2017-09-29T05:19:45.770Z,100.00
2017-09-29T05:22:14.122Z,100.00
2017-09-29T05:24:42.550Z,100.00
2017-09-29T05:27:10.908Z,100.00
2017-09-29T05:29:39.287Z,100.00
2017-09-29T05:32:07.640Z,100.00
2017-09-29T05:34:35.991Z,100.00
2017-09-29T05:37:04.346Z,100.00
2017-09-29T05:39:32.706Z,100.00
2017-09-29T05:42:01.391Z,100.00
2017-09-29T05:44:29.779Z,100.00
2017-09-29T05:46:58.134Z,100.00
2017-09-29T05:49:26.490Z,100.00
2017-09-29T05:51:54.878Z,100.00
2017-09-29T05:54:23.224Z,100.00
2017-09-29T05:56:51.635Z,100.00
2017-09-29T05:59:20.015Z,100.00
2017-09-29T06:01:48.379Z,100.00
2017-09-29T06:04:16.739Z,100.00
2017-09-29T06:06:45.115Z,100.00
2017-09-29T06:09:13.755Z,100.00
2017-09-29T06:11:42.106Z,100.00
2017-09-29T06:14:10.458Z,100.00
2017-09-29T06:16:38.838Z,100.00
2017-09-29T06:19:07.322Z,100.00
2017-09-29T06:21:36.073Z,100.00
2017-09-29T06:24:04.425Z,100.00
2017-09-29T06:26:32.787Z,100.00
2017-09-29T06:29:01.166Z,100.00
2017-09-29T06:31:29.547Z,100.00
2017-09-29T06:33:57.916Z,98.82
2017-09-29T06:36:26.267Z,99.16
2017-09-29T06:38:54.615Z,99.17
2017-09-29T06:41:22.962Z,98.08
2017-09-29T06:43:51.443Z,96.92
2017-09-29T06:46:19.792Z,97.11
2017-09-29T06:48:48.142Z,97.17
2017-09-29T06:51:16.495Z,96.37
2017-09-29T06:53:44.844Z,95.50
2017-09-29T06:56:13.291Z,94.73
2017-09-29T06:58:41.670Z,93.48
2017-09-29T07:01:10.013Z,94.14
2017-09-29T07:03:38.371Z,93.50
2017-09-29T07:06:06.707Z,92.18
2017-09-29T07:08:35.180Z,92.05
2017-09-29T07:11:03.544Z,90.83
2017-09-29T07:13:31.884Z,89.69
2017-09-29T07:16:00.218Z,89.77
2017-09-29T07:18:29.472Z,89.56
2017-09-29T07:20:57.853Z,90.39
2017-09-29T07:23:26.192Z,90.22
2017-09-29T07:25:55.020Z,91.16
2017-09-29T07:28:24.935Z,90.13
2017-09-29T07:30:56.550Z,90.92
2017-09-29T07:33:25.031Z,91.19
2017-09-29T07:35:53.366Z,90.83
2017-09-29T07:38:21.731Z,90.00
2017-09-29T07:40:50.086Z,90.42
2017-09-29T07:43:18.467Z,89.76
2017-09-29T07:45:46.850Z,89.23
2017-09-29T07:48:15.187Z,88.73
2017-09-29T07:50:43.530Z,88.76
2017-09-29T07:53:11.868Z,89.27
2017-09-29T07:55:40.206Z,87.37
2017-09-29T07:58:08.544Z,88.08
2017-09-29T08:00:36.882Z,87.74
2017-09-29T08:03:05.241Z,85.98
2017-09-29T08:05:33.571Z,86.13
2017-09-29T08:08:02.107Z,85.06
2017-09-29T08:10:30.454Z,85.93
2017-09-29T08:12:58.782Z,86.59
2017-09-29T08:15:27.160Z,87.00
2017-09-29T08:17:55.499Z,86.54
2017-09-29T08:20:23.827Z,86.17
2017-09-29T08:22:52.190Z,85.75
2017-09-29T08:25:20.734Z,84.43
2017-09-29T08:27:49.107Z,83.62
2017-09-29T08:30:17.571Z,83.74
2017-09-29T08:32:45.906Z,83.43
2017-09-29T08:35:14.244Z,83.38
2017-09-29T08:37:42.579Z,84.70
2017-09-29T08:40:10.912Z,85.20
2017-09-29T08:42:39.247Z,85.86
2017-09-29T08:45:07.594Z,85.65
2017-09-29T08:47:35.951Z,86.01
2017-09-29T08:50:04.316Z,85.74
2017-09-29T08:52:32.946Z,84.84
2017-09-29T08:55:01.279Z,85.02
2017-09-29T08:57:29.653Z,86.57
2017-09-29T08:59:58.003Z,87.30
2017-09-29T09:02:26.343Z,88.33
2017-09-29T09:04:54.803Z,89.19
2017-09-29T09:07:23.144Z,89.67
2017-09-29T09:09:51.478Z,90.63
2017-09-29T09:12:19.814Z,90.41
2017-09-29T09:14:48.183Z,90.90
2017-09-29T09:17:16.546Z,90.46
2017-09-29T09:19:44.879Z,90.68
2017-09-29T09:22:13.239Z,89.21
2017-09-29T09:24:41.607Z,88.22
2017-09-29T09:27:10.087Z,87.26
2017-09-29T09:29:38.415Z,85.60
2017-09-29T09:32:06.802Z,84.26
2017-09-29T09:34:35.400Z,82.83
2017-09-29T09:37:04.628Z,83.33
2017-09-29T09:39:33.381Z,82.13
2017-09-29T09:42:03.212Z,80.36
2017-09-29T09:44:32.741Z,80.16
2017-09-29T09:47:08.052Z,79.83
2017-09-29T09:49:37.946Z,81.81
2017-09-29T09:54:43.702Z,80.52
2017-09-29T09:57:12.218Z,81.44
2017-09-29T09:59:40.559Z,80.01
2017-09-29T10:02:08.893Z,79.67
2017-09-29T10:04:37.225Z,80.24
2017-09-29T10:07:05.558Z,80.55
2017-09-29T10:09:33.930Z,79.03
2017-09-29T10:12:02.267Z,73.32
2017-09-29T10:14:30.634Z,69.85
2017-09-29T10:16:58.974Z,62.73
2017-09-29T10:19:27.319Z,60.76
2017-09-29T10:21:55.654Z,59.07
2017-09-29T10:24:24.016Z,58.63
2017-09-29T10:26:52.647Z,57.26
2017-09-29T10:29:20.982Z,55.09
2017-09-29T10:31:49.344Z,53.30
2017-09-29T10:34:17.691Z,54.01
2017-09-29T10:36:46.023Z,52.36
2017-09-29T10:39:14.417Z,53.73
2017-09-29T10:41:42.750Z,53.42
2017-09-29T10:44:11.143Z,56.47
2017-09-29T10:46:39.474Z,58.92
2017-09-29T10:49:07.816Z,60.24
2017-09-29T10:51:36.207Z,61.83
2017-09-29T10:54:04.538Z,63.16
2017-09-29T10:56:33.002Z,63.11
2017-09-29T10:59:01.358Z,65.05
2017-09-29T11:01:30.189Z,65.90
2017-09-29T11:03:59.083Z,65.96
2017-09-29T11:06:27.418Z,66.69
2017-09-29T11:08:55.794Z,65.53
2017-09-29T11:11:24.444Z,66.94
2017-09-29T11:13:52.916Z,67.53
2017-09-29T11:16:21.260Z,68.17
2017-09-29T11:18:49.593Z,68.29
2017-09-29T11:21:17.927Z,69.53
2017-09-29T11:23:46.262Z,70.75
2017-09-29T11:26:14.597Z,67.16
2017-09-29T11:28:42.963Z,64.62
2017-09-29T11:31:11.300Z,61.77
2017-09-29T11:33:40.600Z,59.48
2017-09-29T11:36:08.963Z,58.63
2017-09-29T11:38:37.301Z,58.15
2017-09-29T11:41:05.644Z,59.25
2017-09-29T11:43:34.029Z,61.13
2017-09-29T11:46:03.062Z,61.53
2017-09-29T11:48:31.529Z,59.52
2017-09-29T11:50:59.978Z,60.84
2017-09-29T11:53:28.328Z,58.36
2017-09-29T11:55:57.853Z,58.14
2017-09-29T11:58:26.696Z,59.05
2017-09-29T12:00:59.602Z,59.89
2017-09-29T12:03:27.992Z,57.69
2017-09-29T12:05:56.335Z,59.17
2017-09-29T12:08:24.974Z,59.45
2017-09-29T12:10:53.314Z,58.72
2017-09-29T12:13:21.690Z,56.52
2017-09-29T12:15:50.023Z,57.19
2017-09-29T12:18:18.364Z,57.76
2017-09-29T12:20:46.726Z,57.61
2017-09-29T12:23:15.060Z,57.86
2017-09-29T12:25:43.399Z,59.28
2017-09-29T12:28:11.754Z,58.20
2017-09-29T12:30:44.740Z,74.88
2017-09-29T12:33:18.671Z,69.45
2017-09-29T12:35:47.036Z,72.53
2017-09-29T12:38:15.407Z,65.50
2017-09-29T12:40:43.747Z,67.72
2017-09-29T12:43:12.091Z,71.42
2017-09-29T12:45:40.435Z,69.71
2017-09-29T12:48:08.898Z,68.46
2017-09-29T12:50:37.247Z,68.44
2017-09-29T12:53:05.581Z,68.21
2017-09-29T12:55:33.939Z,68.47
2017-09-29T12:58:02.372Z,69.24
2017-09-29T13:00:30.751Z,71.44
2017-09-29T13:02:59.086Z,71.40
2017-09-29T13:05:27.423Z,70.47
2017-09-29T13:07:55.760Z,69.79
2017-09-29T13:10:24.230Z,67.98
2017-09-29T13:12:52.563Z,68.72
2017-09-29T13:15:20.905Z,69.21
2017-09-29T13:17:49.238Z,72.03
2017-09-29T13:20:17.607Z,72.43
2017-09-29T13:22:45.964Z,72.34
2017-09-29T13:25:14.298Z,72.70
2017-09-29T13:27:42.693Z,71.96
2017-09-29T13:30:11.034Z,73.64
2017-09-29T13:32:39.559Z,73.10
2017-09-29T13:35:08.028Z,71.66
2017-09-29T13:37:36.366Z,72.54
2017-09-29T13:40:04.694Z,73.05
2017-09-29T13:42:33.066Z,73.84
2017-09-29T13:45:01.410Z,74.63
2017-09-29T13:47:29.775Z,73.69
2017-09-29T13:49:58.413Z,74.64
2017-09-29T13:52:26.773Z,74.02
2017-09-29T13:54:55.165Z,75.03
2017-09-29T13:57:23.543Z,75.52
2017-09-29T13:59:52.421Z,75.03
2017-09-29T14:02:20.763Z,75.73
2017-09-29T14:04:49.135Z,76.53
2017-09-29T14:07:17.513Z,77.32
2017-09-29T14:09:45.874Z,76.64
2017-09-29T14:12:14.217Z,74.32
2017-09-29T14:14:42.599Z,75.08
2017-09-29T14:17:10.979Z,75.96
2017-09-29T14:19:40.167Z,75.42
2017-09-29T14:22:08.506Z,74.84
2017-09-29T14:24:36.849Z,74.16
2017-09-29T14:27:05.226Z,73.42
2017-09-29T14:29:33.578Z,74.39
2017-09-29T14:32:01.965Z,75.60
2017-09-29T14:34:30.347Z,75.57
2017-09-29T14:36:58.690Z,75.83
2017-09-29T14:39:27.295Z,75.83
2017-09-29T14:41:55.670Z,75.14
2017-09-29T14:44:24.011Z,74.87
2017-09-29T14:46:52.486Z,76.46
2017-09-29T14:49:20.830Z,78.58
2017-09-29T14:51:49.469Z,80.68
2017-09-29T14:54:30.401Z,100.00
2017-09-29T14:56:58.757Z,88.30
2017-09-29T14:59:27.147Z,87.59
2017-09-29T15:01:55.494Z,84.67
2017-09-29T15:04:23.844Z,92.88
2017-09-29T15:06:52.202Z,95.24
2017-09-29T15:09:20.553Z,88.37
2017-09-29T15:11:49.028Z,94.37
2017-09-29T15:14:17.375Z,90.86
2017-09-29T15:16:45.718Z,87.24
2017-09-29T15:19:14.071Z,93.42
2017-09-29T15:21:42.455Z,100.00
2017-09-29T15:24:10.834Z,94.03
2017-09-29T15:26:39.254Z,89.50
2017-09-29T15:29:07.602Z,88.92
2017-09-29T15:31:35.981Z,95.80
2017-09-29T15:34:04.361Z,91.35
2017-09-29T15:36:32.702Z,89.15
2017-09-29T15:39:01.060Z,87.16
2017-09-29T15:41:29.403Z,85.76
2017-09-29T15:43:57.779Z,85.22
2017-09-29T15:46:26.131Z,85.25
2017-09-29T15:48:54.478Z,86.05
2017-09-29T15:51:22.850Z,85.88
2017-09-29T15:53:51.196Z,86.07
2017-09-29T15:56:19.554Z,84.66
2017-09-29T15:58:48.792Z,85.30
2017-09-29T16:01:17.144Z,85.99
2017-09-29T16:03:45.523Z,94.27
2017-09-29T16:06:13.914Z,99.81
2017-09-29T16:08:42.273Z,94.27
2017-09-29T16:11:10.663Z,99.28
2017-09-29T16:13:39.020Z,100.00
2017-09-29T16:16:07.403Z,99.82
2017-09-29T16:18:36.423Z,98.04
2017-09-29T16:21:04.774Z,100.00
2017-09-29T16:23:33.154Z,100.00
2017-09-29T16:26:01.520Z,100.00
2017-09-29T16:28:29.898Z,100.00
2017-09-29T16:30:58.258Z,100.00
2017-09-29T16:33:26.634Z,99.42
2017-09-29T16:35:55.006Z,99.26
2017-09-29T16:38:23.352Z,98.26
2017-09-29T16:40:51.699Z,97.86
2017-09-29T16:43:20.046Z,97.87
2017-09-29T16:45:48.381Z,96.26
2017-09-29T16:48:16.739Z,96.96
2017-09-29T16:50:45.085Z,96.83
2017-09-29T16:53:13.555Z,95.84
2017-09-29T16:55:41.903Z,95.83
2017-09-29T16:58:10.250Z,96.38
2017-09-29T17:00:38.598Z,96.17
2017-09-29T17:03:06.946Z,95.35
2017-09-29T17:05:35.328Z,95.19
2017-09-29T17:08:03.669Z,95.58
2017-09-29T17:10:32.143Z,95.00
2017-09-29T17:13:00.499Z,96.28
2017-09-29T17:15:28.837Z,95.40
2017-09-29T17:17:57.190Z,95.48
2017-09-29T17:20:25.562Z,95.68
2017-09-29T17:22:53.919Z,95.65
2017-09-29T17:25:22.265Z,97.00
2017-09-29T17:27:50.634Z,96.69
2017-09-29T17:30:20.629Z,98.17
2017-09-29T17:32:48.970Z,97.14
2017-09-29T17:35:17.350Z,97.52
2017-09-29T17:37:45.781Z,96.10
2017-09-29T17:40:14.255Z,96.63
2017-09-29T17:42:42.600Z,97.26
2017-09-29T17:45:10.975Z,97.10
2017-09-29T17:47:39.359Z,97.09
2017-09-29T17:50:07.708Z,96.17
2017-09-29T17:52:36.088Z,97.38
2017-09-29T17:55:04.439Z,96.78
2017-09-29T17:57:32.813Z,96.84
2017-09-29T18:00:01.174Z,96.22
2017-09-29T18:02:29.638Z,95.58
2017-09-29T18:04:57.978Z,95.41
2017-09-29T18:07:26.336Z,96.18
2017-09-29T18:09:54.802Z,96.09
2017-09-29T18:12:23.151Z,96.25
2017-09-29T18:14:51.499Z,97.54
2017-09-29T18:17:19.904Z,96.01
2017-09-29T18:19:48.696Z,94.04
2017-09-29T18:22:17.078Z,95.49
2017-09-29T18:24:45.428Z,95.43
2017-09-29T18:27:13.833Z,94.69
2017-09-29T18:29:42.399Z,94.56
2017-09-29T18:32:10.901Z,94.56
2017-09-29T18:34:39.666Z,94.89
2017-09-29T18:37:08.461Z,95.21
2017-09-29T18:39:36.807Z,94.94
2017-09-29T18:42:06.064Z,94.05
2017-09-29T18:44:37.136Z,92.88
2017-09-29T18:47:22.288Z,93.65
2017-09-29T18:49:50.711Z,92.67
2017-09-29T18:52:19.213Z,92.54
2017-09-29T18:54:47.568Z,93.52
2017-09-29T18:57:15.927Z,93.45
2017-09-29T18:59:44.284Z,93.09
2017-09-29T19:02:12.667Z,92.72
2017-09-29T19:04:41.105Z,92.87
2017-09-29T19:07:09.500Z,92.77
2017-09-29T19:09:38.079Z,92.16
2017-09-29T19:12:06.728Z,92.57
2017-09-29T19:14:35.559Z,91.83
2017-09-29T19:17:04.196Z,91.32
2017-09-29T19:19:32.707Z,91.96
2017-09-29T19:22:02.966Z,91.68
2017-09-29T19:24:31.522Z,92.02
2017-09-29T19:27:00.134Z,91.27
2017-09-29T19:29:28.663Z,91.83
2017-09-29T19:31:57.059Z,92.85
2017-09-29T19:34:25.550Z,92.51
2017-09-29T19:36:54.081Z,91.88
2017-09-29T19:39:22.523Z,92.18
2017-09-29T19:41:50.871Z,91.85
2017-09-29T19:44:19.243Z,91.28
2017-09-29T19:46:47.590Z,92.01
2017-09-29T19:49:15.939Z,91.49
2017-09-29T19:51:44.594Z,92.15
2017-09-29T19:54:13.143Z,91.62
2017-09-29T19:56:41.492Z,91.27
2017-09-29T19:59:09.970Z,90.16
2017-09-29T20:01:38.324Z,90.33
2017-09-29T20:04:06.674Z,90.50
2017-09-29T20:06:35.064Z,89.78
2017-09-29T20:09:03.411Z,89.62
2017-09-29T20:11:31.933Z,89.11
2017-09-29T20:14:00.510Z,89.31
2017-09-29T20:16:28.856Z,88.62
2017-09-29T20:18:57.207Z,87.72
2017-09-29T20:21:25.574Z,87.64
2017-09-29T20:23:53.934Z,87.71
2017-09-29T20:26:22.287Z,87.39
2017-09-29T20:28:50.625Z,87.12
2017-09-29T20:31:18.974Z,87.61
2017-09-29T20:33:47.352Z,86.70
2017-09-29T20:36:15.694Z,87.05
2017-09-29T20:38:44.036Z,86.42
2017-09-29T20:41:12.507Z,87.12
2017-09-29T20:43:40.854Z,87.39
2017-09-29T20:46:09.203Z,87.21
2017-09-29T20:48:37.554Z,87.46
2017-09-29T20:51:05.898Z,87.22
2017-09-29T20:53:34.278Z,87.93
2017-09-29T20:56:02.658Z,87.40
2017-09-29T20:58:31.071Z,87.41
2017-09-29T21:00:59.409Z,87.55
2017-09-29T21:03:27.751Z,87.03
2017-09-29T21:05:56.127Z,87.14
2017-09-29T21:08:24.467Z,86.87
2017-09-29T21:10:52.843Z,87.43
2017-09-29T21:13:21.327Z,87.59
2017-09-29T21:15:49.665Z,87.48
2017-09-29T21:18:18.010Z,87.12
2017-09-29T21:20:46.368Z,86.84
2017-09-29T21:23:14.711Z,86.44
2017-09-29T21:25:43.083Z,86.48
2017-09-29T21:28:11.430Z,86.58
2017-09-29T21:30:39.781Z,86.07
2017-09-29T21:33:08.159Z,86.83
2017-09-29T21:35:36.518Z,87.19
2017-09-29T21:38:04.888Z,87.69
2017-09-29T21:40:33.230Z,87.82
2017-09-29T21:43:01.601Z,87.86
2017-09-29T21:45:29.946Z,88.26
2017-09-29T21:47:58.294Z,87.86
2017-09-29T21:50:26.674Z,87.33
2017-09-29T21:52:55.011Z,86.36
2017-09-29T21:55:23.500Z,87.30
2017-09-29T21:57:51.867Z,86.58
2017-09-29T22:00:20.235Z,87.18
2017-09-29T22:02:48.611Z,88.19
2017-09-29T22:05:20.805Z,87.74
2017-09-29T22:07:49.176Z,87.18
2017-09-29T22:10:17.553Z,87.53
2017-09-29T22:12:45.895Z,87.93
2017-09-29T22:15:14.266Z,88.32
2017-09-29T22:17:42.616Z,87.87
2017-09-29T22:20:10.991Z,88.28
2017-09-29T22:22:39.341Z,88.04
2017-09-29T22:25:07.695Z,88.03
2017-09-29T22:27:36.030Z,89.09
2017-09-29T22:30:04.673Z,89.86
2017-09-29T22:32:33.046Z,90.61
2017-09-29T22:35:01.400Z,91.25
2017-09-29T22:37:29.742Z,92.42
2017-09-29T22:39:58.109Z,93.39
2017-09-29T22:42:26.451Z,92.68
2017-09-29T22:44:54.799Z,92.95
2017-09-29T22:47:23.151Z,92.88
2017-09-29T22:49:51.528Z,92.26
2017-09-29T22:52:19.887Z,92.63
2017-09-29T22:54:48.258Z,91.10
2017-09-29T22:57:16.615Z,91.63
2017-09-29T22:59:44.959Z,91.38
2017-09-29T23:02:13.334Z,91.46
2017-09-29T23:04:41.683Z,91.03
2017-09-29T23:07:10.107Z,90.80
2017-09-29T23:09:38.442Z,89.61
2017-09-29T23:12:06.786Z,90.42
2017-09-29T23:14:35.140Z,90.76
2017-09-29T23:17:03.506Z,90.74
2017-09-29T23:19:31.871Z,90.18
2017-09-29T23:22:00.223Z,90.70
2017-09-29T23:24:28.601Z,90.65
2017-09-29T23:26:56.947Z,91.24
2017-09-29T23:29:25.330Z,90.57
2017-09-29T23:31:53.674Z,91.06
2017-09-29T23:34:22.018Z,90.29
2017-09-29T23:36:50.502Z,91.05
2017-09-29T23:39:18.851Z,90.52
2017-09-29T23:41:47.207Z,89.83
2017-09-29T23:44:15.559Z,89.82
2017-09-29T23:46:43.904Z,90.71
2017-09-29T23:49:12.285Z,90.95
2017-09-29T23:51:40.628Z,91.26
2017-09-29T23:54:09.012Z,92.90
2017-09-29T23:56:37.355Z,92.95
2017-09-29T23:59:05.750Z,92.84
